Panama, Iowa
Current Conditions -  °F | °C
As of 11:35 PM on Sunday 21 Dec 2014 (Local Time) from KHNR Reporting Station
Haze Haze  
Wind Chill: 32°   Ceiling: 400
Heat Index: 41°   Visibility: 1.7mi
Dew Point: 41°   Wind: 18mph
Humidity: 100%   Direction: 180°S
Pressure: 29.69"   Gusts: NA
Location:  41.73°N, 95.47°W
Report Text: KHNR 220535Z AUTO 18016KT 1 3/4SM BR OVC004 05/05 A2969 RMK AO2
Loading
Personal Weather Stations






























Interactive Weather Map New forecast layout! Learn more

10-Day Weather Forecast

Advertisements
Track Severe Weather on mobile